Time;durP1;ratioP1;P1;durP2;ratioP2;P2;SDS_P1;SDS_P2;PMS_P1;PMS_P2;Temp;Humidity;BMP_temperature;BMP_pressure;BME280_temperature;BME280_humidity;BME280_pressure;Samples;Min_cycle;Max_cycle;Signal;HPM_P1;HPM_P2
2022/10/03 00:02:14;;;;;;;5.40;1.33;;;12.00;99.90;;;;;;5119974;28;20929;-45
2022/10/03 00:04:57;;;;;;;4.00;1.77;;;12.00;99.90;;;;;;5119896;28;20493;-45
2022/10/03 00:07:40;;;;;;;4.50;1.80;;;12.10;99.90;;;;;;5120405;28;20923;-45
2022/10/03 00:10:22;;;;;;;5.23;1.70;;;12.10;99.90;;;;;;5119574;28;20460;-47
2022/10/03 00:13:02;;;;;;;14.93;2.50;;;12.20;99.90;;;;;;5118989;28;20833;-44
2022/10/03 00:15:36;;;;;;;4.77;1.80;;;12.20;99.90;;;;;;5119874;28;20449;-44
2022/10/03 00:18:16;;;;;;;7.90;2.00;;;12.30;99.90;;;;;;5119624;28;20464;-48
2022/10/03 00:21:01;;;;;;;10.03;1.50;;;12.30;99.90;;;;;;5119640;28;20444;-44
2022/10/03 00:23:41;;;;;;;4.87;1.73;;;12.20;99.90;;;;;;5119902;28;20802;-46
2022/10/03 00:26:31;;;;;;;10.70;2.20;;;12.30;99.90;;;;;;5119180;28;20448;-44
2022/10/03 00:29:14;;;;;;;17.17;2.47;;;12.20;99.90;;;;;;5119724;28;20472;-45
2022/10/03 00:31:52;;;;;;;7.90;1.53;;;12.30;99.90;;;;;;5119434;28;20429;-45
2022/10/03 00:34:29;;;;;;;8.93;2.37;;;12.30;99.90;;;;;;5119478;28;20420;-43
2022/10/03 00:37:19;;;;;;;4.77;1.40;;;12.30;99.90;;;;;;5119143;28;20479;-46
2022/10/03 00:40:00;;;;;;;8.23;2.73;;;12.30;99.90;;;;;;5118833;28;20431;-42
2022/10/03 00:42:59;;;;;;;15.30;2.00;;;12.30;99.90;;;;;;5119278;28;20497;-43
2022/10/03 00:46:03;;;;;;;7.27;1.73;;;12.30;99.90;;;;;;5119203;28;20828;-42
2022/10/03 00:48:57;;;;;;;7.33;1.30;;;12.30;99.90;;;;;;5118746;28;20511;-44
2022/10/03 00:51:39;;;;;;;4.27;2.23;;;12.30;99.90;;;;;;5118705;28;20511;-46
2022/10/03 00:54:26;;;;;;;6.47;1.93;;;12.30;99.90;;;;;;5118696;28;20463;-48
2022/10/03 00:57:08;;;;;;;3.90;1.63;;;12.30;99.90;;;;;;5119217;28;20423;-44
2022/10/03 00:59:52;;;;;;;3.93;1.60;;;12.30;99.90;;;;;;5118986;28;20784;-45
2022/10/03 01:02:42;;;;;;;10.10;1.77;;;12.30;99.90;;;;;;5118264;28;20464;-45
2022/10/03 01:05:23;;;;;;;5.30;1.70;;;12.30;99.90;;;;;;5118849;28;20428;-46
2022/10/03 01:08:29;;;;;;;8.10;1.63;;;12.20;99.90;;;;;;5119257;28;20452;-46
2022/10/03 01:11:12;;;;;;;7.60;2.20;;;12.20;99.90;;;;;;5118960;28;20470;-45
2022/10/03 01:13:52;;;;;;;3.57;1.67;;;12.20;99.90;;;;;;5118748;28;20482;-47
2022/10/03 01:16:28;;;;;;;4.73;1.47;;;12.10;99.90;;;;;;5119487;28;20420;-43
2022/10/03 01:19:07;;;;;;;7.30;1.53;;;12.10;99.90;;;;;;5118520;28;20459;-49
2022/10/03 01:21:46;;;;;;;10.63;1.83;;;12.10;99.90;;;;;;5119337;28;20453;-44
2022/10/03 01:24:41;;;;;;;6.03;1.73;;;12.00;99.90;;;;;;5119038;28;20436;-49
2022/10/03 01:27:11;;;;;;;2.43;1.67;;;12.10;99.90;;;;;;5118412;28;20472;-45
2022/10/03 01:32:44;;;;;;;2.70;1.17;;;12.10;99.90;;;;;;5118569;28;20459;-43
2022/10/03 01:35:26;;;;;;;6.17;2.10;;;12.20;99.90;;;;;;5119141;28;20459;-44
2022/10/03 01:38:03;;;;;;;6.80;2.67;;;12.20;99.90;;;;;;5118271;28;20476;-44
2022/10/03 01:40:36;;;;;;;5.77;1.70;;;12.20;99.90;;;;;;5118441;28;20424;-44
2022/10/03 01:43:20;;;;;;;11.57;2.07;;;12.10;99.90;;;;;;5118613;28;20436;-48
2022/10/03 01:46:01;;;;;;;9.17;2.03;;;12.20;99.90;;;;;;5118900;28;20803;-46
2022/10/03 01:48:35;;;;;;;12.90;1.80;;;12.20;99.90;;;;;;5118469;28;20448;-48
2022/10/03 01:51:10;;;;;;;4.50;1.70;;;12.20;99.90;;;;;;5118823;28;20460;-51
2022/10/03 01:53:48;;;;;;;8.60;1.90;;;12.20;99.90;;;;;;5119352;28;20448;-52
2022/10/03 01:56:24;;;;;;;6.60;2.13;;;12.20;99.90;;;;;;5118012;28;20468;-48
2022/10/03 01:58:58;;;;;;;6.20;1.53;;;12.10;99.90;;;;;;5118693;28;20457;-48
2022/10/03 02:01:35;;;;;;;4.90;2.20;;;12.20;99.90;;;;;;5118694;28;20843;-48
2022/10/03 02:04:11;;;;;;;3.83;1.73;;;12.20;99.90;;;;;;5119428;28;20444;-43
2022/10/03 02:06:48;;;;;;;4.10;1.70;;;12.20;99.90;;;;;;5118853;28;20431;-46
2022/10/03 02:09:26;;;;;;;7.17;1.77;;;12.30;99.90;;;;;;5118154;28;20866;-43
2022/10/03 02:12:13;;;;;;;7.63;1.87;;;12.20;99.90;;;;;;5118129;28;20435;-47
2022/10/03 02:14:53;;;;;;;3.43;2.10;;;12.30;99.90;;;;;;5118396;28;20484;-42
2022/10/03 02:17:29;;;;;;;7.83;2.17;;;12.20;99.90;;;;;;5118723;28;20842;-40
2022/10/03 02:20:03;;;;;;;2.30;1.20;;;12.30;99.90;;;;;;5117881;28;20464;-44
2022/10/03 02:22:34;;;;;;;4.60;2.73;;;12.30;99.90;;;;;;5118010;28;20431;-45
2022/10/03 02:25:15;;;;;;;5.13;2.03;;;12.30;99.90;;;;;;5118017;28;20421;-43
2022/10/03 02:28:00;;;;;;;6.60;1.30;;;12.30;99.90;;;;;;5117992;28;20451;-45
2022/10/03 02:30:36;;;;;;;6.73;1.67;;;12.30;99.90;;;;;;5118430;28;20464;-45
2022/10/03 02:33:43;;;;;;;6.53;1.80;;;12.30;99.90;;;;;;5118112;28;20468;-42
2022/10/03 02:36:42;;;;;;;8.13;1.50;;;12.30;99.90;;;;;;5120681;28;20470;-53
2022/10/03 02:39:45;;;;;;;6.53;1.77;;;12.30;99.90;;;;;;5121556;28;20460;-41
2022/10/03 02:42:50;;;;;;;5.63;2.00;;;12.40;99.90;;;;;;5121934;28;20431;-43
2022/10/03 02:45:45;;;;;;;4.60;1.33;;;12.40;99.90;;;;;;5121774;28;20468;-46
2022/10/03 02:49:01;;;;;;;7.20;2.10;;;12.30;99.90;;;;;;5121658;28;20452;-43
2022/10/03 02:51:54;;;;;;;1.87;1.33;;;12.40;99.90;;;;;;5121716;28;20475;-40
2022/10/03 02:55:08;;;;;;;6.30;1.80;;;12.40;99.90;;;;;;5121499;28;20436;-41
2022/10/03 02:58:06;;;;;;;5.30;2.20;;;12.40;99.90;;;;;;5121155;28;20467;-42
2022/10/03 03:00:54;;;;;;;4.30;1.40;;;12.30;99.90;;;;;;5122373;28;20456;-46
2022/10/03 03:03:37;;;;;;;3.67;1.40;;;12.30;99.90;;;;;;5120704;28;20848;-49
2022/10/03 03:06:42;;;;;;;3.47;1.80;;;12.30;99.90;;;;;;5120838;28;20723;-49
2022/10/03 03:09:35;;;;;;;3.33;1.40;;;12.40;99.90;;;;;;5120708;28;20487;-49
2022/10/03 03:12:38;;;;;;;4.53;1.90;;;12.40;99.90;;;;;;5098758;28;20678;-48
2022/10/03 03:15:44;;;;;;;5.27;1.63;;;12.40;99.90;;;;;;5119461;28;20464;-47
2022/10/03 03:18:24;;;;;;;8.13;1.97;;;12.40;99.90;;;;;;5119924;28;20943;-52
2022/10/03 03:21:09;;;;;;;4.17;1.97;;;12.30;99.90;;;;;;5101949;28;20770;-48
2022/10/03 03:23:56;;;;;;;3.73;1.87;;;12.40;99.90;;;;;;5120781;28;20424;-42
2022/10/03 03:26:57;;;;;;;4.87;1.40;;;12.40;99.90;;;;;;5120278;28;20428;-47
2022/10/03 03:29:34;;;;;;;6.50;1.67;;;12.30;99.90;;;;;;5119097;28;20827;-49
2022/10/03 03:32:13;;;;;;;4.60;1.40;;;12.30;99.90;;;;;;5120578;28;20429;-49
2022/10/03 03:34:49;;;;;;;8.53;1.83;;;12.30;99.90;;;;;;5119654;28;20440;-49
2022/10/03 03:37:26;;;;;;;3.53;1.60;;;12.30;99.90;;;;;;5119455;28;20475;-49
2022/10/03 03:40:16;;;;;;;5.57;1.40;;;12.30;99.90;;;;;;5119747;28;20660;-45
2022/10/03 03:43:07;;;;;;;3.63;2.00;;;12.30;99.90;;;;;;5119668;28;20433;-47
2022/10/03 03:45:47;;;;;;;5.97;1.77;;;12.30;99.90;;;;;;5119571;28;20969;-46
2022/10/03 03:48:30;;;;;;;5.80;1.83;;;12.40;99.90;;;;;;5119002;28;20809;-46
2022/10/03 03:51:11;;;;;;;10.57;1.83;;;12.40;99.90;;;;;;5119562;28;20465;-51
2022/10/03 03:54:04;;;;;;;5.00;1.70;;;12.40;99.90;;;;;;5119355;28;20730;-46
2022/10/03 03:57:02;;;;;;;4.40;1.93;;;12.30;99.90;;;;;;5118305;28;20459;-47
2022/10/03 03:59:47;;;;;;;6.07;2.20;;;12.40;99.90;;;;;;5112037;28;20925;-47
2022/10/03 04:02:28;;;;;;;8.10;1.73;;;12.40;99.90;;;;;;5119554;28;20456;-47
2022/10/03 04:05:05;;;;;;;7.93;2.70;;;12.40;99.90;;;;;;5119020;28;20451;-48
2022/10/03 04:07:48;;;;;;;4.93;1.63;;;12.40;99.90;;;;;;5119108;28;20761;-46
2022/10/03 04:10:31;;;;;;;12.40;2.50;;;12.50;99.90;;;;;;5119384;28;20831;-45
2022/10/03 04:13:31;;;;;;;3.10;1.50;;;12.50;99.90;;;;;;5118988;28;20455;-47
2022/10/03 04:16:16;;;;;;;9.17;1.43;;;12.50;99.90;;;;;;5113757;28;20781;-46
2022/10/03 04:18:58;;;;;;;16.50;2.23;;;12.40;99.90;;;;;;5120103;28;20723;-42
2022/10/03 04:21:37;;;;;;;14.40;2.00;;;12.40;99.90;;;;;;5119579;28;20415;-46
2022/10/03 04:24:24;;;;;;;7.30;1.80;;;12.40;99.90;;;;;;5118716;28;20432;-47
2022/10/03 04:27:10;;;;;;;7.47;1.93;;;12.40;99.90;;;;;;5118766;28;20405;-43
2022/10/03 04:29:54;;;;;;;6.80;2.20;;;12.40;99.90;;;;;;5118911;28;20471;-49
2022/10/03 04:32:37;;;;;;;8.87;2.37;;;12.50;99.90;;;;;;5118960;28;20429;-47
2022/10/03 04:35:20;;;;;;;7.03;2.50;;;12.40;99.90;;;;;;5118990;28;20479;-51
2022/10/03 04:37:51;;;;;;;3.03;1.60;;;12.40;99.90;;;;;;5118807;28;20443;-45
2022/10/03 04:40:31;;;;;;;3.10;1.40;;;12.50;99.90;;;;;;5119002;28;20484;-44
2022/10/03 04:43:08;;;;;;;4.60;2.03;;;12.40;99.90;;;;;;5118636;28;20482;-47
2022/10/03 04:45:48;;;;;;;3.87;1.97;;;12.40;99.90;;;;;;5118436;28;20437;-51
2022/10/03 04:48:27;;;;;;;8.03;1.77;;;12.40;99.90;;;;;;5118352;28;20460;-44
2022/10/03 04:51:06;;;;;;;11.60;1.63;;;12.30;99.90;;;;;;5119142;28;20460;-44
2022/10/03 04:53:49;;;;;;;12.83;2.10;;;12.40;99.90;;;;;;5118571;28;20475;-47
2022/10/03 04:56:44;;;;;;;6.30;2.23;;;12.30;99.90;;;;;;5118707;28;20428;-45
2022/10/03 04:59:34;;;;;;;4.10;1.43;;;12.30;99.90;;;;;;5118014;28;20488;-49
2022/10/03 05:02:09;;;;;;;12.80;1.93;;;12.40;99.90;;;;;;5118250;28;20742;-50
2022/10/03 05:04:45;;;;;;;5.87;1.90;;;12.30;99.90;;;;;;5118165;28;20506;-48
2022/10/03 05:07:20;;;;;;;9.20;1.47;;;12.40;99.90;;;;;;5118892;28;20451;-52
2022/10/03 05:09:52;;;;;;;8.33;1.63;;;12.30;99.90;;;;;;5117672;28;20471;-48
2022/10/03 05:12:28;;;;;;;11.30;2.00;;;12.30;99.90;;;;;;5117617;28;20869;-50
2022/10/03 05:15:11;;;;;;;2.60;2.37;;;12.30;99.90;;;;;;5118058;28;20425;-48
2022/10/03 05:17:47;;;;;;;4.70;2.00;;;12.30;99.90;;;;;;5117569;28;20469;-49
2022/10/03 05:20:35;;;;;;;4.80;1.70;;;12.30;99.90;;;;;;5118523;28;20436;-47
2022/10/03 05:23:14;;;;;;;3.17;1.60;;;12.30;99.90;;;;;;5118367;28;20460;-43
2022/10/03 05:25:54;;;;;;;4.50;1.30;;;12.30;99.90;;;;;;5117956;28;20440;-51
2022/10/03 05:28:32;;;;;;;3.37;1.93;;;12.30;99.90;;;;;;5117521;28;20493;-47
2022/10/03 05:31:06;;;;;;;3.70;1.60;;;12.30;99.90;;;;;;5117777;28;20539;-44
2022/10/03 05:33:42;;;;;;;5.87;1.43;;;12.80;99.90;;;;;;5117161;28;20566;-49
2022/10/03 05:36:19;;;;;;;5.63;2.20;;;12.40;99.90;;;;;;5117577;28;20753;-45
2022/10/03 05:39:33;;;;;;;8.03;2.00;;;12.40;99.90;;;;;;5117255;28;20429;-48
2022/10/03 05:42:16;;;;;;;2.70;1.20;;;12.40;99.90;;;;;;5117806;28;20747;-45
2022/10/03 05:44:50;;;;;;;6.00;1.70;;;12.40;99.90;;;;;;5117092;28;20468;-50
2022/10/03 05:47:47;;;;;;;5.70;1.50;;;12.50;99.90;;;;;;5117214;28;20428;-53
2022/10/03 05:50:48;;;;;;;2.80;1.30;;;12.50;99.90;;;;;;5117184;28;20495;-49
2022/10/03 05:53:38;;;;;;;10.60;1.80;;;12.50;99.90;;;;;;5117159;28;20429;-48
2022/10/03 05:56:10;;;;;;;6.57;1.83;;;12.50;99.90;;;;;;5117064;28;20461;-47
2022/10/03 05:59:19;;;;;;;6.20;1.67;;;12.50;99.90;;;;;;5117116;28;20425;-46
2022/10/03 06:02:19;;;;;;;1.97;1.27;;;12.50;99.90;;;;;;5117347;28;20469;-46
2022/10/03 06:05:04;;;;;;;2.90;1.33;;;12.60;99.90;;;;;;5114286;28;20764;-46
2022/10/03 06:07:41;;;;;;;15.00;2.47;;;12.50;99.90;;;;;;5117714;28;20571;-46
2022/10/03 06:10:42;;;;;;;11.13;1.53;;;12.60;99.90;;;;;;5119014;28;20467;-50
2022/10/03 06:13:18;;;;;;;2.17;1.37;;;12.60;99.90;;;;;;5121273;28;20474;-52
2022/10/03 06:15:58;;;;;;;4.33;1.87;;;12.60;99.90;;;;;;5121667;28;20884;-47
2022/10/03 06:18:54;;;;;;;4.67;2.37;;;12.50;99.90;;;;;;5122554;28;20460;-53
2022/10/03 06:21:54;;;;;;;10.70;1.73;;;12.40;99.90;;;;;;5113059;28;20440;-50
2022/10/03 06:24:58;;;;;;;3.97;1.80;;;12.30;99.90;;;;;;5112834;28;20480;-50
2022/10/03 06:27:56;;;;;;;3.03;1.30;;;12.30;99.90;;;;;;5121420;28;20892;-51
2022/10/03 06:30:32;;;;;;;9.43;1.50;;;12.30;99.90;;;;;;5120989;28;20960;-50
2022/10/03 06:33:35;;;;;;;4.53;1.50;;;12.30;99.90;;;;;;5118250;28;20439;-46
2022/10/03 06:36:42;;;;;;;2.97;1.13;;;12.30;99.90;;;;;;5118590;28;20467;-48
2022/10/03 06:39:44;;;;;;;12.10;1.87;;;12.30;99.90;;;;;;5120278;28;20715;-49
2022/10/03 06:42:59;;;;;;;6.43;1.47;;;12.40;99.90;;;;;;5120725;28;20489;-46
2022/10/03 06:46:10;;;;;;;10.73;1.40;;;12.50;99.90;;;;;;5017917;28;20463;-48
2022/10/03 06:49:13;;;;;;;4.60;1.70;;;12.60;99.90;;;;;;5016188;28;20535;-50
2022/10/03 06:52:05;;;;;;;10.53;2.00;;;12.60;99.90;;;;;;5107016;28;20812;-50
2022/10/03 06:55:21;;;;;;;5.07;1.30;;;12.70;99.90;;;;;;5115601;28;20444;-50
2022/10/03 06:58:22;;;;;;;2.70;1.10;;;12.70;99.90;;;;;;5099715;28;20469;-47
2022/10/03 07:01:00;;;;;;;5.00;1.30;;;12.80;99.90;;;;;;5135140;28;20429;-51
2022/10/03 07:03:57;;;;;;;15.50;2.53;;;12.80;99.90;;;;;;5130296;28;20452;-48
2022/10/03 07:06:53;;;;;;;3.40;1.97;;;12.80;99.90;;;;;;5135859;28;20504;-48
2022/10/03 07:10:17;;;;;;;11.77;2.23;;;12.80;99.90;;;;;;5138128;28;20440;-46
2022/10/03 07:13:21;;;;;;;4.03;1.70;;;12.80;99.90;;;;;;5118229;28;20748;-49
2022/10/03 07:16:23;;;;;;;1.80;1.10;;;12.90;99.90;;;;;;5124812;28;20432;-45
2022/10/03 07:19:38;;;;;;;4.67;2.10;;;13.00;99.90;;;;;;5091426;28;20444;-43
2022/10/03 07:22:47;;;;;;;11.80;2.07;;;13.00;99.90;;;;;;5107345;28;20461;-48
2022/10/03 07:25:53;;;;;;;3.60;1.43;;;13.10;99.90;;;;;;5124501;28;20432;-46
2022/10/03 07:29:08;;;;;;;4.53;1.10;;;13.30;99.90;;;;;;5127610;28;20463;-46
2022/10/03 07:31:49;;;;;;;6.10;1.50;;;13.40;99.90;;;;;;5069126;28;20473;-50
2022/10/03 07:34:43;;;;;;;8.93;1.87;;;13.40;99.90;;;;;;5128945;28;20441;-45
2022/10/03 07:40:40;;;;;;;6.97;1.50;;;13.50;99.90;;;;;;5103276;28;20413;-46
2022/10/03 07:43:50;;;;;;;11.30;1.47;;;13.50;99.90;;;;;;5112424;28;20443;-48
2022/10/03 07:47:08;;;;;;;3.67;1.70;;;13.60;99.90;;;;;;5121084;28;20435;-49
2022/10/03 07:49:55;;;;;;;4.33;1.73;;;13.60;99.90;;;;;;5120067;28;20480;-46
2022/10/03 07:52:42;;;;;;;5.30;1.40;;;13.80;99.90;;;;;;5121870;28;20470;-47
2022/10/03 07:55:47;;;;;;;4.57;1.30;;;13.90;99.90;;;;;;5120934;28;20467;-46
2022/10/03 07:58:41;;;;;;;3.20;1.20;;;14.10;99.90;;;;;;5108276;28;20440;-51
2022/10/03 08:01:43;;;;;;;7.73;2.10;;;14.10;99.90;;;;;;5112772;28;20500;-50
2022/10/03 08:04:54;;;;;;;3.47;2.00;;;14.00;99.90;;;;;;5084615;28;20588;-51
2022/10/03 08:07:35;;;;;;;3.47;1.30;;;14.00;99.90;;;;;;5036075;28;20813;-52
2022/10/03 08:10:15;;;;;;;10.47;2.43;;;13.90;99.90;;;;;;5117786;28;20457;-44
2022/10/03 08:13:02;;;;;;;6.30;1.93;;;13.80;99.90;;;;;;5119644;28;20883;-49
2022/10/03 08:15:39;;;;;;;6.27;1.53;;;13.80;99.90;;;;;;5109885;28;20454;-50
2022/10/03 08:18:36;;;;;;;5.63;1.47;;;13.70;99.90;;;;;;5119437;28;20452;-42
2022/10/03 08:21:04;;;;;;;8.30;1.70;;;13.70;99.90;;;;;;5118521;28;20440;-46
2022/10/03 08:23:56;;;;;;;4.73;1.43;;;13.70;99.90;;;;;;5115516;28;20457;-51
2022/10/03 08:26:38;;;;;;;5.73;2.10;;;13.80;99.90;;;;;;5118506;28;20944;-46
2022/10/03 08:29:27;;;;;;;15.03;1.50;;;13.90;99.90;;;;;;5119034;28;20483;-44
2022/10/03 08:32:37;;;;;;;8.53;1.60;;;14.00;99.90;;;;;;5116750;28;20471;-53
2022/10/03 08:35:25;;;;;;;5.90;1.67;;;14.10;99.90;;;;;;5117442;28;20432;-48
2022/10/03 08:38:19;;;;;;;2.90;1.73;;;14.20;99.90;;;;;;5117148;28;20429;-51
2022/10/03 08:41:18;;;;;;;12.83;2.00;;;14.20;99.90;;;;;;5105840;28;20444;-50
2022/10/03 08:44:26;;;;;;;5.43;1.10;;;14.20;99.90;;;;;;5117623;28;20437;-47
2022/10/03 08:47:17;;;;;;;10.03;1.83;;;14.20;99.90;;;;;;5113976;28;20436;-49
2022/10/03 08:50:18;;;;;;;11.20;3.00;;;14.30;99.90;;;;;;5116348;28;20926;-52
2022/10/03 08:53:08;;;;;;;5.50;2.13;;;14.30;99.90;;;;;;5117550;28;20441;-52
2022/10/03 08:55:46;;;;;;;6.87;1.97;;;14.60;99.90;;;;;;5099836;28;20495;-47
2022/10/03 08:59:00;;;;;;;6.20;1.63;;;14.70;99.90;;;;;;5116755;28;20441;-50
2022/10/03 09:01:50;;;;;;;10.90;2.00;;;14.70;99.90;;;;;;5105393;28;20473;-49
2022/10/03 09:05:13;;;;;;;6.63;1.67;;;14.70;99.90;;;;;;5069423;28;20454;-49
2022/10/03 09:08:14;;;;;;;4.93;1.60;;;14.90;99.90;;;;;;5122177;28;20464;-51
2022/10/03 09:11:17;;;;;;;2.90;1.13;;;15.00;99.90;;;;;;5118868;28;20476;-49
2022/10/03 09:14:20;;;;;;;7.37;1.83;;;15.30;99.90;;;;;;5091731;28;20451;-49
2022/10/03 09:17:05;;;;;;;11.53;2.50;;;15.50;99.90;;;;;;5117642;28;20436;-48
2022/10/03 09:19:59;;;;;;;8.70;1.90;;;15.70;99.90;;;;;;5117340;28;20441;-49
2022/10/03 09:22:53;;;;;;;6.93;1.57;;;15.70;99.90;;;;;;5117327;28;20451;-49
2022/10/03 09:25:30;;;;;;;6.00;1.60;;;15.70;99.90;;;;;;5117029;28;20436;-50
2022/10/03 09:28:41;;;;;;;8.93;1.83;;;15.60;99.90;;;;;;5116101;28;20436;-53
2022/10/03 09:31:26;;;;;;;8.77;1.80;;;15.40;99.90;;;;;;5097598;28;20461;-50
2022/10/03 09:34:21;;;;;;;7.13;1.97;;;15.30;99.90;;;;;;5096972;28;20472;-47
2022/10/03 09:37:17;;;;;;;9.10;2.23;;;15.80;99.90;;;;;;5097439;28;20789;-51
2022/10/03 09:40:19;;;;;;;4.90;1.23;;;16.70;99.90;;;;;;5096550;28;20465;-50
2022/10/03 09:43:16;;;;;;;4.97;1.63;;;17.50;99.90;;;;;;5097234;28;20432;-48
2022/10/03 09:46:22;;;;;;;3.37;1.80;;;17.70;99.90;;;;;;5080281;28;20564;-47
2022/10/03 09:49:17;;;;;;;5.07;1.57;;;18.00;99.90;;;;;;5078583;28;20457;-48
2022/10/03 09:51:56;;;;;;;5.73;1.37;;;18.30;99.90;;;;;;5095944;28;20512;-48
2022/10/03 09:54:52;;;;;;;6.33;1.80;;;18.50;99.90;;;;;;5096879;28;20902;-49
2022/10/03 09:57:59;;;;;;;3.57;1.60;;;19.00;99.90;;;;;;5115480;28;20475;-50
2022/10/03 10:00:31;;;;;;;7.33;1.77;;;19.50;99.90;;;;;;5116829;28;20429;-48
2022/10/03 10:03:38;;;;;;;3.70;1.70;;;19.30;99.90;;;;;;5116965;28;20868;-45
2022/10/03 10:06:54;;;;;;;3.73;1.40;;;18.90;99.90;;;;;;5117245;28;20440;-52
2022/10/03 10:09:46;;;;;;;5.33;2.10;;;19.00;99.90;;;;;;5034543;28;20444;-52
2022/10/03 10:12:55;;;;;;;4.27;1.73;;;18.80;99.90;;;;;;5035108;28;20475;-47
2022/10/03 10:15:59;;;;;;;9.20;2.20;;;18.20;99.90;;;;;;5090666;28;20468;-45
2022/10/03 10:19:16;;;;;;;6.87;1.50;;;17.70;99.90;;;;;;5117382;28;20432;-47
2022/10/03 10:22:13;;;;;;;5.53;1.40;;;17.30;99.90;;;;;;5117163;28;20436;-49
2022/10/03 10:25:16;;;;;;;2.73;1.40;;;17.10;99.90;;;;;;5116441;28;20472;-49
2022/10/03 10:28:37;;;;;;;2.77;1.43;;;16.90;99.90;;;;;;5116549;28;20409;-52
2022/10/03 10:31:49;;;;;;;7.23;1.43;;;17.30;99.90;;;;;;5034106;28;20483;-47
2022/10/03 10:34:52;;;;;;;7.63;1.90;;;17.90;99.90;;;;;;5034278;28;20858;-47
2022/10/03 10:38:04;;;;;;;3.67;1.50;;;18.90;99.90;;;;;;5095047;28;20534;-47
2022/10/03 10:41:00;;;;;;;4.27;1.30;;;20.00;99.90;;;;;;5037103;28;20768;-45
2022/10/03 10:44:10;;;;;;;10.00;2.17;;;20.70;99.90;;;;;;5091636;28;20448;-48
2022/10/03 10:47:09;;;;;;;7.37;2.47;;;20.50;99.90;;;;;;5116521;28;20436;-47
2022/10/03 10:50:12;;;;;;;10.00;1.67;;;20.00;99.90;;;;;;5112404;28;20460;-49
2022/10/03 10:53:16;;;;;;;4.40;1.40;;;19.70;99.90;;;;;;5115814;28;20495;-47
2022/10/03 10:56:35;;;;;;;4.30;1.47;;;19.70;99.90;;;;;;5100891;28;20451;-48
2022/10/03 10:59:47;;;;;;;3.90;1.83;;;19.90;99.90;;;;;;5119543;28;20464;-52
2022/10/03 11:02:53;;;;;;;5.43;1.33;;;19.70;99.90;;;;;;5119501;28;20433;-52
2022/10/03 11:05:46;;;;;;;4.70;1.40;;;19.40;99.90;;;;;;5118862;28;20464;-51
2022/10/03 11:08:50;;;;;;;5.63;1.47;;;19.10;99.90;;;;;;5081200;28;20667;-46
2022/10/03 11:11:59;;;;;;;4.27;1.40;;;18.50;99.90;;;;;;5118758;28;20464;-47
2022/10/03 11:15:08;;;;;;;2.17;1.30;;;18.30;99.90;;;;;;5114950;28;20881;-48
2022/10/03 11:18:04;;;;;;;8.30;1.70;;;17.90;99.90;;;;;;5118777;28;20432;-48
2022/10/03 11:21:13;;;;;;;7.90;1.80;;;17.60;99.90;;;;;;5114149;28;20538;-45
2022/10/03 11:24:16;;;;;;;2.10;1.40;;;17.30;99.90;;;;;;5095017;28;20523;-45
2022/10/03 11:27:33;;;;;;;3.50;1.40;;;17.20;99.90;;;;;;5099685;28;20495;-51
2022/10/03 11:30:26;;;;;;;11.33;2.40;;;17.30;99.90;;;;;;5099820;28;20432;-45
2022/10/03 11:33:34;;;;;;;6.97;1.80;;;17.30;99.90;;;;;;5099734;28;20571;-45
2022/10/03 11:36:36;;;;;;;2.20;0.90;;;17.30;99.90;;;;;;5099685;28;20506;-45
2022/10/03 11:39:06;;;;;;;5.73;1.60;;;17.20;99.90;;;;;;5082891;28;20468;-49
2022/10/03 11:41:46;;;;;;;7.13;2.03;;;17.10;99.90;;;;;;5098862;28;20461;-45
2022/10/03 11:44:21;;;;;;;2.40;1.20;;;17.00;99.90;;;;;;5099130;28;20480;-53
2022/10/03 11:47:08;;;;;;;5.53;1.40;;;16.80;99.90;;;;;;5099902;28;20433;-50
2022/10/03 11:50:15;;;;;;;4.60;2.00;;;16.90;99.90;;;;;;5095203;28;20473;-52
2022/10/03 11:52:56;;;;;;;7.57;1.70;;;16.80;99.90;;;;;;5076139;28;20491;-45
2022/10/03 11:55:32;;;;;;;3.60;1.40;;;16.60;99.90;;;;;;5099292;28;20469;-52
2022/10/03 11:58:31;;;;;;;8.80;1.80;;;16.60;99.90;;;;;;5116162;28;20446;-48
2022/10/03 12:01:20;;;;;;;4.53;1.30;;;16.60;99.90;;;;;;5118918;28;20476;-44
2022/10/03 12:03:54;;;;;;;1.50;1.30;;;16.50;99.90;;;;;;5118240;28;20521;-45
2022/10/03 12:09:38;;;;;;;9.13;1.93;;;16.50;99.90;;;;;;5119636;28;20417;-49
2022/10/03 12:12:11;;;;;;;6.80;2.13;;;16.60;99.90;;;;;;5118329;28;20491;-49
2022/10/03 12:14:47;;;;;;;5.90;1.77;;;16.60;99.90;;;;;;5119518;28;20429;-47
2022/10/03 12:17:21;;;;;;;10.43;1.67;;;16.60;99.90;;;;;;5119913;28;20927;-46
2022/10/03 12:20:01;;;;;;;5.07;1.27;;;16.70;99.90;;;;;;5118912;28;20859;-49
2022/10/03 12:22:41;;;;;;;6.47;1.93;;;16.70;99.90;;;;;;5119054;28;20476;-46
2022/10/03 12:25:19;;;;;;;3.63;1.50;;;16.70;99.90;;;;;;5115057;28;20449;-46
2022/10/03 12:27:54;;;;;;;2.80;1.63;;;16.60;99.90;;;;;;5118733;28;20456;-49
2022/10/03 12:30:21;;;;;;;7.70;1.70;;;16.60;99.90;;;;;;5118802;28;20825;-48
2022/10/03 12:33:03;;;;;;;2.47;1.63;;;16.50;99.90;;;;;;5119238;28;20480;-45
2022/10/03 12:35:42;;;;;;;7.33;2.30;;;16.60;99.90;;;;;;5103272;28;20895;-49
2022/10/03 12:38:42;;;;;;;5.87;2.40;;;16.60;99.90;;;;;;5119002;28;20498;-51
2022/10/03 12:41:21;;;;;;;6.57;1.80;;;16.60;99.90;;;;;;5119121;28;20783;-44
2022/10/03 12:44:07;;;;;;;5.87;1.47;;;16.60;99.90;;;;;;5119062;28;20439;-46
2022/10/03 12:46:43;;;;;;;6.97;1.70;;;16.70;99.90;;;;;;5118551;28;20904;-50
2022/10/03 12:49:18;;;;;;;4.33;1.63;;;16.80;99.90;;;;;;5112916;28;20761;-46
2022/10/03 12:51:55;;;;;;;3.03;1.37;;;17.00;99.90;;;;;;5119278;28;20484;-47
2022/10/03 12:54:35;;;;;;;5.73;1.50;;;17.20;99.90;;;;;;5114407;28;20534;-46
2022/10/03 12:57:35;;;;;;;1.70;1.00;;;17.40;99.90;;;;;;5111723;28;20459;-46
2022/10/03 13:00:06;;;;;;;7.30;1.37;;;17.50;99.90;;;;;;5118516;28;20455;-44
2022/10/03 13:02:37;;;;;;;8.40;2.23;;;17.70;99.90;;;;;;5118045;28;20468;-44
2022/10/03 13:05:28;;;;;;;3.73;1.70;;;17.80;99.90;;;;;;5118678;28;20835;-49
2022/10/03 13:08:01;;;;;;;4.57;1.40;;;17.80;99.90;;;;;;5117498;28;20469;-47
2022/10/03 13:10:38;;;;;;;6.30;1.50;;;17.80;99.90;;;;;;5115374;28;20437;-46
2022/10/03 13:13:25;;;;;;;8.20;1.90;;;17.80;99.90;;;;;;5100667;28;20524;-45
2022/10/03 13:16:20;;;;;;;2.80;1.47;;;17.60;99.90;;;;;;5109303;28;20425;-45
2022/10/03 13:18:53;;;;;;;3.53;1.50;;;17.80;99.90;;;;;;5114446;28;20465;-46
2022/10/03 13:21:29;;;;;;;3.83;1.23;;;17.70;99.90;;;;;;5118258;28;20441;-49
2022/10/03 13:24:01;;;;;;;4.73;2.23;;;17.60;99.90;;;;;;5117441;28;20439;-46
2022/10/03 13:26:42;;;;;;;2.80;1.73;;;17.50;99.90;;;;;;5117844;28;20421;-50
2022/10/03 13:29:22;;;;;;;4.37;1.40;;;17.60;99.90;;;;;;5117867;28;20440;-51
2022/10/03 13:32:20;;;;;;;3.17;1.10;;;17.50;99.90;;;;;;5117920;28;20437;-45
2022/10/03 13:38:17;;;;;;;3.33;1.37;;;17.20;99.90;;;;;;5116569;28;20436;-49
2022/10/03 13:40:51;;;;;;;3.37;1.10;;;17.10;99.90;;;;;;5109443;28;20452;-50
2022/10/03 13:43:24;;;;;;;1.87;1.20;;;17.00;99.90;;;;;;5117509;28;20428;-51
2022/10/03 13:45:55;;;;;;;2.70;2.43;;;16.90;99.90;;;;;;5117944;28;20512;-45
2022/10/03 13:48:26;;;;;;;3.23;1.03;;;16.90;99.90;;;;;;5117927;28;20448;-51
2022/10/03 13:51:01;;;;;;;2.97;1.20;;;16.80;99.90;;;;;;5118332;28;20432;-47
2022/10/03 13:53:47;;;;;;;3.37;1.50;;;16.70;99.90;;;;;;5118147;28;20519;-53
2022/10/03 13:56:27;;;;;;;6.90;2.00;;;16.70;99.90;;;;;;5117994;28;20436;-53
2022/10/03 13:59:03;;;;;;;7.40;3.10;;;16.70;99.90;;;;;;5118366;28;20468;-50
2022/10/03 14:01:41;;;;;;;4.20;1.57;;;16.80;99.90;;;;;;5117656;28;20837;-49
2022/10/03 14:04:38;;;;;;;3.00;1.10;;;16.90;99.90;;;;;;5117889;28;20487;-44
2022/10/03 14:07:13;;;;;;;3.20;1.30;;;17.10;99.90;;;;;;5117708;28;20458;-46
2022/10/03 14:10:08;;;;;;;2.63;1.20;;;17.30;99.90;;;;;;5117274;28;20469;-48
2022/10/03 14:12:49;;;;;;;3.83;1.10;;;17.40;99.90;;;;;;5117212;28;20472;-48
2022/10/03 14:15:30;;;;;;;8.60;1.87;;;17.30;99.90;;;;;;5118049;28;20495;-49
2022/10/03 14:18:06;;;;;;;5.23;1.30;;;17.20;99.90;;;;;;5118037;28;20439;-44
2022/10/03 14:20:40;;;;;;;3.97;1.73;;;17.30;99.90;;;;;;5117892;28;20468;-44
2022/10/03 14:23:19;;;;;;;7.17;2.20;;;17.40;99.90;;;;;;5117849;28;20433;-49
2022/10/03 14:25:56;;;;;;;8.53;1.63;;;17.40;99.90;;;;;;5116810;28;20468;-47
2022/10/03 14:28:28;;;;;;;3.27;1.47;;;17.50;99.90;;;;;;5116637;28;20436;-53
2022/10/03 14:31:05;;;;;;;7.17;1.57;;;17.50;99.90;;;;;;5118515;28;20443;-49
2022/10/03 14:33:38;;;;;;;3.17;1.30;;;17.50;99.90;;;;;;5121303;28;20499;-53
2022/10/03 14:36:24;;;;;;;5.73;2.10;;;17.50;99.90;;;;;;5120521;28;20444;-49
2022/10/03 14:39:09;;;;;;;8.13;1.90;;;17.40;99.90;;;;;;5120342;28;20428;-50
2022/10/03 14:41:45;;;;;;;4.90;1.50;;;17.40;99.90;;;;;;5116703;28;20442;-44
2022/10/03 14:44:18;;;;;;;3.90;1.50;;;17.30;99.90;;;;;;5120034;28;20428;-47
2022/10/03 14:46:51;;;;;;;7.30;2.40;;;17.20;99.90;;;;;;5119790;28;20429;-46
2022/10/03 14:49:23;;;;;;;2.33;1.40;;;17.20;99.90;;;;;;5120398;28;20480;-48